Time;durP1;ratioP1;P1;durP2;ratioP2;P2;SDS_P1;SDS_P2;PMS_P1;PMS_P2;Temp;Humidity;BMP_temperature;BMP_pressure;BME280_temperature;BME280_humidity;BME280_pressure;Samples;Min_cycle;Max_cycle;Signal;HPM_P1;HPM_P2
2021/01/21 00:00:43;;;;;;;0.75;0.75;;;8.30;99.90;;;;;;4826909;29;20055;-87
2021/01/21 00:03:20;;;;;;;0.80;0.80;;;;;;;;;;4819962;29;20039;-89
2021/01/21 00:05:58;;;;;;;4.63;1.13;;;7.90;99.90;;;;;;4825330;29;20085;-87
2021/01/21 00:08:51;;;;;;;1.10;1.10;;;7.70;99.90;;;;;;4825906;29;20059;-88
2021/01/21 00:11:34;;;;;;;0.90;0.90;;;;;;;;;;4827784;29;20055;-87
2021/01/21 00:14:12;;;;;;;1.38;1.27;;;;;;;;;;4823427;29;20041;-87
2021/01/21 00:16:57;;;;;;;1.30;1.13;;;;;;;;;;4838491;29;20058;-89
2021/01/21 00:19:27;;;;;;;1.85;1.00;;;;;;;;;;4827524;29;20061;-89
2021/01/21 00:22:07;;;;;;;1.75;1.63;;;;;;;;;;4825883;29;20043;-88
2021/01/21 00:24:57;;;;;;;1.40;1.02;;;;;;;;;;4847370;29;20051;-89
2021/01/21 00:27:37;;;;;;;1.00;1.00;;;;;;;;;;4834441;29;20064;-88
2021/01/21 00:30:12;;;;;;;1.08;1.08;;;;;;;;;;4812857;29;20077;-87
2021/01/21 00:33:03;;;;;;;1.10;1.10;;;7.30;99.90;;;;;;4812843;29;20052;-87
2021/01/21 00:35:34;;;;;;;2.83;1.23;;;;;;;;;;4826478;29;20055;-88
2021/01/21 00:38:05;;;;;;;1.23;1.15;;;;;;;;;;4813340;29;20125;-87
2021/01/21 00:40:38;;;;;;;2.22;1.17;;;;;;;;;;4813799;29;20061;-89
2021/01/21 00:43:07;;;;;;;3.00;1.75;;;;;;;;;;4839691;24;20049;-88
2021/01/21 00:45:41;;;;;;;1.23;1.23;;;;;;;;;;4845461;29;20062;-86
2021/01/21 00:48:15;;;;;;;0.93;0.93;;;;;;;;;;4854120;29;20058;-89
2021/01/21 00:50:58;;;;;;;1.17;1.10;;;;;;;;;;4857747;29;20049;-88
2021/01/21 00:53:37;;;;;;;1.15;1.08;;;;;;;;;;4848054;29;20026;-89
2021/01/21 00:56:07;;;;;;;1.45;1.35;;;;;;;;;;4828235;29;20068;-90
2021/01/21 00:58:51;;;;;;;4.35;3.33;;;;;;;;;;4841115;29;20077;-87
2021/01/21 01:01:35;;;;;;;1.30;1.20;;;;;;;;;;4824204;29;20119;-89
2021/01/21 01:04:09;;;;;;;1.25;1.25;;;;;;;;;;4839149;29;20055;-88
2021/01/21 01:06:39;;;;;;;1.23;1.15;;;;;;;;;;4841677;29;20065;-92
2021/01/21 01:09:23;;;;;;;1.15;1.13;;;6.40;99.90;;;;;;4846983;29;20049;-88
2021/01/21 01:12:10;;;;;;;1.48;1.38;;;;;;;;;;4843335;29;20062;-88
2021/01/21 01:14:43;;;;;;;1.60;1.10;;;;;;;;;;4803485;29;20065;-88
2021/01/21 01:17:15;;;;;;;7.13;1.27;;;;;;;;;;4847706;29;20054;-89
2021/01/21 01:19:50;;;;;;;1.25;1.25;;;;;;;;;;4829583;29;20054;-91
2021/01/21 01:22:32;;;;;;;1.45;1.35;;;;;;;;;;4842587;29;20073;-88
2021/01/21 01:25:12;;;;;;;1.15;1.15;;;6.30;99.90;;;;;;4841262;29;20055;-86
2021/01/21 01:27:42;;;;;;;1.10;1.10;;;;;;;;;;4834619;29;20056;-87
2021/01/21 01:30:14;;;;;;;1.30;1.30;;;6.20;99.90;;;;;;4833220;29;20060;-87
2021/01/21 01:32:51;;;;;;;1.27;1.17;;;6.20;99.90;;;;;;4812890;29;20061;-88
2021/01/21 01:35:26;;;;;;;2.55;2.38;;;;;;;;;;4825075;29;20055;-89
2021/01/21 01:37:55;;;;;;;1.95;1.15;;;;;;;;;;4842494;29;20050;-87
2021/01/21 01:40:27;;;;;;;1.38;1.27;;;;;;;;;;4853482;29;20062;-91
2021/01/21 01:43:01;;;;;;;1.70;1.60;;;;;;;;;;4824274;29;20063;-86
2021/01/21 01:45:39;;;;;;;1.63;1.40;;;;;;;;;;4838600;29;20072;-88
2021/01/21 01:48:11;;;;;;;1.02;1.02;;;6.00;99.90;;;;;;4841229;29;20054;-89
2021/01/21 01:50:48;;;;;;;1.85;1.33;;;;;;;;;;4842342;29;20058;-85
2021/01/21 01:53:28;;;;;;;1.17;1.08;;;5.90;99.90;;;;;;4839117;29;20058;-90
2021/01/21 01:56:11;;;;;;;1.77;1.67;;;6.00;99.90;;;;;;4827723;29;20059;-88
2021/01/21 01:58:57;;;;;;;3.53;1.40;;;;;;;;;;4841804;29;20069;-91
2021/01/21 02:01:45;;;;;;;1.20;1.10;;;5.90;99.90;;;;;;4828549;29;20073;-87
2021/01/21 02:04:20;;;;;;;1.50;1.40;;;;;;;;;;4831857;29;20065;-87
2021/01/21 02:07:16;;;;;;;1.30;1.30;;;;;;;;;;4835648;29;20057;-87
2021/01/21 02:10:13;;;;;;;1.10;1.10;;;5.80;99.90;;;;;;4822778;29;20059;-87
2021/01/21 02:13:34;;;;;;;3.22;1.42;;;5.80;99.90;;;;;;4835865;29;20060;-87
2021/01/21 02:16:11;;;;;;;1.67;1.58;;;;;;;;;;4840549;29;20053;-87
2021/01/21 02:19:17;;;;;;;1.40;1.30;;;5.60;99.90;;;;;;4822725;29;20046;-87
2021/01/21 02:22:31;;;;;;;1.70;1.60;;;5.70;99.90;;;;;;4836329;29;20050;-87
2021/01/21 02:25:10;;;;;;;3.25;1.95;;;5.70;99.90;;;;;;4817541;29;20081;-88
2021/01/21 02:28:07;;;;;;;1.52;1.40;;;5.60;99.90;;;;;;4827212;29;20057;-88
2021/01/21 02:30:51;;;;;;;2.55;1.58;;;;;;;;;;4846576;29;20058;-87
2021/01/21 02:33:55;;;;;;;2.78;2.13;;;5.40;99.90;;;;;;4845382;24;20074;-88
2021/01/21 02:36:40;;;;;;;9.52;2.55;;;5.30;99.90;;;;;;4832161;29;20066;-87
2021/01/21 02:39:30;;;;;;;2.38;2.15;;;;;;;;;;4849538;29;20057;-86
2021/01/21 02:42:08;;;;;;;4.82;2.33;;;;;;;;;;4875271;24;20068;-87
2021/01/21 02:44:40;;;;;;;4.60;1.77;;;;;;;;;;4857051;29;20045;-87
2021/01/21 02:47:30;;;;;;;5.80;2.83;;;;;;;;;;4864962;29;20057;-87
2021/01/21 02:50:02;;;;;;;2.27;2.07;;;;;;;;;;4873581;29;20053;-87
2021/01/21 02:52:51;;;;;;;2.95;1.85;;;5.10;99.90;;;;;;4870511;29;20053;-87
2021/01/21 02:55:56;;;;;;;1.73;1.42;;;5.00;99.90;;;;;;4869896;29;20135;-89
2021/01/21 02:58:34;;;;;;;5.88;2.08;;;;;;;;;;4849494;29;20053;-87
2021/01/21 03:01:16;;;;;;;2.15;2.05;;;;;;;;;;4859469;29;20057;-87
2021/01/21 03:03:59;;;;;;;2.30;1.80;;;5.00;99.90;;;;;;4847145;29;20129;-86
2021/01/21 03:06:30;;;;;;;4.72;1.92;;;4.90;99.90;;;;;;4858874;29;20063;-87
2021/01/21 03:09:02;;;;;;;2.25;2.05;;;4.90;99.90;;;;;;4851803;29;20057;-86
2021/01/21 03:11:49;;;;;;;2.90;2.35;;;;;;;;;;4864724;29;20152;-88
2021/01/21 03:14:40;;;;;;;4.15;2.47;;;;;;;;;;4865371;29;20060;-86
2021/01/21 03:17:09;;;;;;;1.70;1.60;;;4.90;99.90;;;;;;4851959;29;20087;-87
2021/01/21 03:19:42;;;;;;;6.32;1.80;;;;;;;;;;4866560;29;20060;-89
2021/01/21 03:22:15;;;;;;;2.00;1.90;;;;;;;;;;4856200;29;20128;-86
2021/01/21 03:24:45;;;;;;;6.80;3.15;;;;;;;;;;4858208;29;20053;-88
2021/01/21 03:27:24;;;;;;;8.38;3.03;;;;;;;;;;4854564;29;20058;-87
2021/01/21 03:29:56;;;;;;;4.10;2.60;;;;;;;;;;4868016;29;20068;-87
2021/01/21 03:32:52;;;;;;;5.15;2.35;;;;;;;;;;4864554;29;20061;-87
2021/01/21 03:35:25;;;;;;;4.03;2.22;;;;;;;;;;4843994;29;20068;-87
2021/01/21 03:38:10;;;;;;;3.50;2.15;;;;;;;;;;4850836;29;20049;-87
2021/01/21 03:40:56;;;;;;;4.85;2.33;;;;;;;;;;4843435;29;20069;-91
2021/01/21 03:44:03;;;;;;;5.28;2.53;;;;;;;;;;4848146;29;20038;-87
2021/01/21 03:46:31;;;;;;;6.00;2.20;;;;;;;;;;4848413;29;20063;-88
2021/01/21 03:49:01;;;;;;;4.00;2.25;;;;;;;;;;4844419;29;20045;-87
2021/01/21 03:51:57;;;;;;;4.70;3.00;;;;;;;;;;4858832;29;20061;-88
2021/01/21 03:54:37;;;;;;;7.07;3.92;;;;;;;;;;4846837;29;20061;-89
2021/01/21 03:57:13;;;;;;;7.78;3.22;;;;;;;;;;4846196;29;20058;-88
2021/01/21 03:59:44;;;;;;;5.38;2.55;;;;;;;;;;4845517;29;20057;-89
2021/01/21 04:02:12;;;;;;;2.65;2.22;;;;;;;;;;4849614;29;20144;-88
2021/01/21 04:04:59;;;;;;;2.65;2.45;;;;;;;;;;4852700;29;20544;-88
2021/01/21 04:07:28;;;;;;;4.43;2.00;;;;;;;;;;4858423;29;20057;-87
2021/01/21 04:10:05;;;;;;;5.63;2.47;;;;;;;;;;4862440;29;20057;-88
2021/01/21 04:13:03;;;;;;;2.90;2.35;;;;;;;;;;4848207;29;20045;-90
2021/01/21 04:15:41;;;;;;;6.63;2.50;;;;;;;;;;4860855;29;20068;-88
2021/01/21 04:18:19;;;;;;;4.05;1.67;;;;;;;;;;4865297;29;20064;-87
2021/01/21 04:21:10;;;;;;;2.42;2.13;;;;;;;;;;4875955;29;20053;-88
2021/01/21 04:23:47;;;;;;;3.85;1.92;;;;;;;;;;4871719;29;20068;-88
2021/01/21 04:26:28;;;;;;;8.27;2.70;;;;;;;;;;4848850;29;20058;-89
2021/01/21 04:29:04;;;;;;;12.77;2.80;;;;;;;;;;4841782;29;20050;-87
2021/01/21 04:31:34;;;;;;;3.05;2.50;;;4.80;99.90;;;;;;4870032;29;20068;-91
2021/01/21 04:34:12;;;;;;;3.67;2.08;;;;;;;;;;4828901;29;20053;-88
2021/01/21 04:36:46;;;;;;;7.30;2.75;;;;;;;;;;4852808;29;20061;-89
2021/01/21 04:39:30;;;;;;;8.38;2.50;;;;;;;;;;4830953;29;20052;-88
2021/01/21 04:42:05;;;;;;;2.47;2.28;;;4.60;99.90;;;;;;4879097;29;20057;-87
2021/01/21 04:44:55;;;;;;;1.98;1.88;;;;;;;;;;4881113;29;20063;-90
2021/01/21 04:47:28;;;;;;;5.53;2.58;;;;;;;;;;4861989;29;20512;-88
2021/01/21 04:50:22;;;;;;;3.58;2.38;;;;;;;;;;4858043;29;20050;-86
2021/01/21 04:53:11;;;;;;;2.28;1.92;;;4.70;99.90;;;;;;4851945;29;20068;-90
2021/01/21 04:56:18;;;;;;;1.83;1.73;;;4.80;99.90;;;;;;4855439;29;20053;-87
2021/01/21 04:58:55;;;;;;;3.88;2.05;;;4.70;99.90;;;;;;4868604;29;20062;-87
2021/01/21 05:01:48;;;;;;;6.90;3.08;;;4.80;99.90;;;;;;4863329;29;20291;-88
2021/01/21 05:04:21;;;;;;;4.00;2.10;;;4.80;99.90;;;;;;4849421;29;20419;-90
2021/01/21 05:07:13;;;;;;;5.88;2.83;;;;;;;;;;4856265;29;20058;-89
2021/01/21 05:09:43;;;;;;;4.88;1.83;;;4.60;99.90;;;;;;4862128;29;20054;-91
2021/01/21 05:12:17;;;;;;;2.70;2.15;;;;;;;;;;4862076;29;20060;-88
2021/01/21 05:14:45;;;;;;;2.40;1.80;;;;;;;;;;4866751;29;20059;-90
2021/01/21 05:17:35;;;;;;;3.22;1.83;;;;;;;;;;4873793;29;20064;-93
2021/01/21 05:20:35;;;;;;;2.65;1.88;;;4.60;99.90;;;;;;4861104;29;20160;-90
2021/01/21 05:23:47;;;;;;;4.85;1.67;;;;;;;;;;4787475;30;20061;-88
2021/01/21 05:26:40;;;;;;;11.77;3.17;;;;;;;;;;4864014;29;20064;-88
2021/01/21 05:29:35;;;;;;;5.03;3.08;;;4.50;99.90;;;;;;4843629;29;20053;-92
2021/01/21 05:32:08;;;;;;;7.63;2.45;;;;;;;;;;4863335;29;20053;-92
2021/01/21 05:34:45;;;;;;;6.50;2.28;;;;;;;;;;4863441;29;20062;-89
2021/01/21 05:37:23;;;;;;;6.65;1.95;;;4.50;99.90;;;;;;4846485;29;20054;-90
2021/01/21 05:40:29;;;;;;;1.98;1.55;;;4.60;99.90;;;;;;4846813;29;20046;-90
2021/01/21 05:43:30;;;;;;;5.88;2.15;;;;;;;;;;4868171;29;20049;-89
2021/01/21 05:46:12;;;;;;;8.60;2.67;;;;;;;;;;4866352;29;20049;-89
2021/01/21 05:48:43;;;;;;;3.13;2.00;;;4.50;99.90;;;;;;4869235;29;20053;-88
2021/01/21 05:51:12;;;;;;;7.05;2.03;;;;;;;;;;4847125;29;20045;-88
2021/01/21 05:54:01;;;;;;;5.40;1.90;;;4.70;99.90;;;;;;4857873;29;20050;-88
2021/01/21 05:56:52;;;;;;;2.13;1.58;;;;;;;;;;4826895;29;20058;-90
2021/01/21 05:59:25;;;;;;;3.33;1.92;;;4.60;99.90;;;;;;4860995;29;20042;-88
2021/01/21 06:02:03;;;;;;;2.85;2.10;;;;;;;;;;4837613;29;20053;-91
2021/01/21 06:04:37;;;;;;;2.95;1.90;;;;;;;;;;4829221;29;20050;-93
2021/01/21 06:07:07;;;;;;;5.25;3.33;;;;;;;;;;4859111;29;20057;-91
2021/01/21 06:09:42;;;;;;;4.15;1.70;;;4.70;99.90;;;;;;4850899;29;20054;-87
2021/01/21 06:12:15;;;;;;;1.75;1.65;;;;;;;;;;4844037;29;20054;-92
2021/01/21 06:14:43;;;;;;;2.63;2.10;;;;;;;;;;4858905;29;20065;-91
2021/01/21 06:17:14;;;;;;;8.60;2.17;;;4.70;99.90;;;;;;4855308;29;20050;-89
2021/01/21 06:20:13;;;;;;;5.32;2.20;;;4.80;99.90;;;;;;4783045;29;20067;-91
2021/01/21 06:22:47;;;;;;;2.13;1.40;;;;;;;;;;4827148;29;20060;-89
2021/01/21 06:25:21;;;;;;;2.80;1.88;;;;;;;;;;4840838;29;20074;-90
2021/01/21 06:27:51;;;;;;;9.07;2.58;;;4.80;99.90;;;;;;4851714;29;20046;-90
2021/01/21 06:30:21;;;;;;;8.48;1.50;;;4.70;99.90;;;;;;4854943;29;20062;-90
2021/01/21 06:32:54;;;;;;;2.63;1.60;;;;;;;;;;4820683;29;20047;-88
2021/01/21 06:35:47;;;;;;;4.68;2.20;;;4.80;99.90;;;;;;4843125;29;20050;-89
2021/01/21 06:38:23;;;;;;;9.38;1.80;;;;;;;;;;4850830;29;20066;-89
2021/01/21 06:40:53;;;;;;;4.13;1.63;;;4.90;99.90;;;;;;4844573;29;20046;-89
2021/01/21 06:43:35;;;;;;;5.35;1.90;;;4.80;99.90;;;;;;4858810;29;20054;-91
2021/01/21 06:46:07;;;;;;;;;;;4.90;99.90;;;;;;4845046;29;20060;-88
2021/01/21 06:48:37;;;;;;;4.13;2.72;;;;;;;;;;4879025;29;19928;-91
2021/01/21 06:51:09;;;;;;;7.20;2.10;;;5.00;99.90;;;;;;4876436;29;20057;-87
2021/01/21 06:53:43;;;;;;;2.40;1.70;;;;;;;;;;4848004;29;20047;-90
2021/01/21 06:56:14;;;;;;;8.40;2.33;;;;;;;;;;4878502;29;20307;-89
2021/01/21 06:58:55;;;;;;;3.92;2.05;;;5.10;99.90;;;;;;4870946;29;20057;-88
2021/01/21 07:01:37;;;;;;;2.67;2.15;;;;;;;;;;4863763;29;20083;-88
2021/01/21 07:04:17;;;;;;;10.65;2.88;;;;;;;;;;4864471;29;20058;-87
2021/01/21 07:07:03;;;;;;;;;;;5.30;99.90;;;;;;4524081;29;10000048;-88
2021/01/21 07:09:33;;;;;;;3.97;1.85;;;;;;;;;;4864797;29;19918;-92
2021/01/21 07:12:07;;;;;;;7.05;2.08;;;;;;;;;;4865326;29;20056;-89
2021/01/21 07:14:37;;;;;;;4.85;1.92;;;5.30;99.90;;;;;;4872970;29;20049;-88
2021/01/21 07:17:07;;;;;;;4.25;2.58;;;5.40;99.90;;;;;;4861716;29;20038;-87
2021/01/21 07:19:47;;;;;;;6.53;1.83;;;5.50;99.90;;;;;;4861418;29;20060;-90
2021/01/21 07:22:20;;;;;;;5.13;2.25;;;5.60;99.90;;;;;;4838659;29;20056;-88
2021/01/21 07:25:06;;;;;;;10.20;2.38;;;5.50;99.90;;;;;;4872903;29;20064;-87
2021/01/21 07:27:41;;;;;;;3.65;1.63;;;5.50;99.90;;;;;;4877111;29;20083;-87
2021/01/21 07:30:28;;;;;;;3.85;2.47;;;5.40;99.90;;;;;;4860301;29;20060;-91
2021/01/21 07:33:21;;;;;;;5.78;2.13;;;5.30;99.90;;;;;;4867905;29;20041;-89
2021/01/21 07:35:50;;;;;;;5.13;2.40;;;5.40;99.90;;;;;;4834560;29;20030;-90
2021/01/21 07:38:45;;;;;;;8.95;2.50;;;5.50;99.90;;;;;;4861986;29;20068;-87
2021/01/21 07:41:49;;;;;;;8.55;2.20;;;5.40;99.90;;;;;;4854276;29;20069;-91
2021/01/21 07:44:24;;;;;;;2.38;2.15;;;;;;;;;;4876223;29;20055;-90
2021/01/21 07:47:32;;;;;;;5.15;2.13;;;5.40;99.90;;;;;;4863488;29;20068;-91
2021/01/21 07:50:22;;;;;;;2.92;1.45;;;;;;;;;;4853375;29;20050;-91
2021/01/21 07:52:59;;;;;;;5.28;2.28;;;5.30;99.90;;;;;;4861194;29;20052;-88
2021/01/21 07:55:36;;;;;;;8.50;2.60;;;;;;;;;;4867154;29;20058;-88
2021/01/21 07:58:20;;;;;;;2.50;1.77;;;;;;;;;;4834318;29;20053;-88
2021/01/21 08:00:58;;;;;;;7.97;1.80;;;;;;;;;;4871226;29;20053;-87
2021/01/21 08:03:35;;;;;;;7.93;1.92;;;5.50;99.90;;;;;;4851851;29;20045;-88
2021/01/21 08:06:22;;;;;;;29.95;3.55;;;5.30;99.90;;;;;;4869471;29;20056;-88
2021/01/21 08:09:12;;;;;;;8.82;3.28;;;5.50;99.90;;;;;;4875566;29;20428;-89
2021/01/21 08:11:45;;;;;;;13.73;4.43;;;;;;;;;;4829917;29;20052;-94
2021/01/21 08:14:14;;;;;;;4.75;3.28;;;;;;;;;;4858715;29;20061;-91
2021/01/21 08:17:02;;;;;;;5.28;2.15;;;5.50;99.90;;;;;;4858968;29;20421;-88
2021/01/21 08:19:41;;;;;;;7.32;1.90;;;5.60;99.90;;;;;;4834862;29;20064;-86
2021/01/21 08:22:11;;;;;;;8.93;2.72;;;;;;;;;;4842273;29;20049;-87
2021/01/21 08:25:00;;;;;;;3.17;2.65;;;5.70;99.90;;;;;;4874441;29;20049;-89
2021/01/21 08:27:45;;;;;;;7.88;2.00;;;5.70;99.90;;;;;;4878781;29;20045;-86
2021/01/21 08:30:30;;;;;;;7.45;2.67;;;;;;;;;;4843564;29;20146;-89
2021/01/21 08:33:28;;;;;;;3.88;1.63;;;5.90;99.90;;;;;;4866294;24;20049;-90
2021/01/21 08:36:00;;;;;;;6.60;2.60;;;;;;;;;;4788941;29;20058;-90
2021/01/21 08:38:35;;;;;;;2.05;1.77;;;5.70;99.90;;;;;;4783457;29;20059;-91
2021/01/21 08:41:16;;;;;;;7.25;2.55;;;5.80;99.90;;;;;;4789744;29;20063;-88
2021/01/21 08:43:49;;;;;;;11.27;2.38;;;;;;;;;;4786097;29;20046;-90
2021/01/21 08:46:23;;;;;;;3.25;1.90;;;;;;;;;;4808481;29;20047;-88
2021/01/21 08:48:54;;;;;;;3.88;2.58;;;;;;;;;;4790648;29;20066;-85
2021/01/21 08:51:42;;;;;;;2.55;2.22;;;6.00;99.90;;;;;;4795733;29;20808;-85
2021/01/21 08:54:24;;;;;;;10.27;4.05;;;;;;;;;;4804662;29;20055;-89
2021/01/21 08:57:20;;;;;;;15.60;3.50;;;;;;;;;;4809864;29;20061;-90
2021/01/21 08:59:56;;;;;;;10.45;2.47;;;;;;;;;;4803913;29;20070;-85
2021/01/21 09:02:41;;;;;;;2.35;1.65;;;;;;;;;;4798808;29;20063;-86
2021/01/21 09:05:11;;;;;;;9.60;3.72;;;6.20;99.90;;;;;;4822021;29;20051;-90
2021/01/21 09:07:42;;;;;;;5.13;1.70;;;;;;;;;;4791470;29;20073;-88
2021/01/21 09:10:46;;;;;;;7.53;2.55;;;;;;;;;;4801292;29;20546;-85
2021/01/21 09:13:21;;;;;;;5.43;1.45;;;;;;;;;;4792923;29;20050;-86
2021/01/21 09:16:02;;;;;;;3.33;2.00;;;;;;;;;;4765492;29;20064;-86
2021/01/21 09:18:45;;;;;;;7.70;2.70;;;6.40;99.90;;;;;;4794642;29;20055;-86
2021/01/21 09:21:17;;;;;;;5.50;1.83;;;6.70;99.90;;;;;;4813431;29;20066;-87
2021/01/21 09:24:11;;;;;;;15.20;5.28;;;;;;;;;;4787339;29;20054;-86
2021/01/21 09:26:43;;;;;;;7.75;2.35;;;;;;;;;;4820183;29;20062;-87
2021/01/21 09:29:12;;;;;;;3.28;1.95;;;;;;;;;;4808583;29;20059;-89
2021/01/21 09:31:46;;;;;;;13.18;3.13;;;;;;;;;;4782314;30;20055;-89
2021/01/21 09:34:26;;;;;;;7.88;2.55;;;;;;;;;;4791043;29;20060;-86
2021/01/21 09:37:03;;;;;;;8.88;4.28;;;;;;;;;;4791435;30;20066;-88
2021/01/21 09:39:32;;;;;;;6.63;2.97;;;;;;;;;;4788390;30;20063;-86
2021/01/21 09:42:06;;;;;;;15.48;4.03;;;;;;;;;;4796661;30;20066;-87
2021/01/21 09:44:38;;;;;;;9.40;2.17;;;;;;;;;;4778215;30;20055;-87
2021/01/21 09:47:16;;;;;;;14.68;2.28;;;;;;;;;;4793405;30;20674;-86
2021/01/21 09:49:49;;;;;;;5.70;3.05;;;;;;;;;;4793328;30;20051;-86
2021/01/21 09:52:24;;;;;;;4.28;1.38;;;;;;;;;;4799723;30;20061;-86
2021/01/21 09:54:58;;;;;;;9.45;2.47;;;;;;;;;;4755477;30;20055;-86
2021/01/21 09:57:28;;;;;;;5.22;2.28;;;;;;;;;;4822986;24;20052;-84
2021/01/21 09:59:59;;;;;;;7.85;2.38;;;;;;;;;;4839012;29;20046;-87
2021/01/21 10:02:31;;;;;;;9.50;1.95;;;;;;;;;;4833391;29;20050;-87
2021/01/21 10:05:04;;;;;;;9.57;2.72;;;;;;;;;;4840901;29;20050;-85
2021/01/21 10:07:35;;;;;;;1.88;1.67;;;;;;;;;;4842375;29;20057;-85
2021/01/21 10:10:07;;;;;;;4.28;2.25;;;;;;;;;;4840336;29;20046;-84
2021/01/21 10:12:37;;;;;;;4.40;2.15;;;;;;;;;;4844178;29;20062;-86
2021/01/21 10:15:07;;;;;;;4.85;2.03;;;;;;;;;;4840187;29;20059;-86
2021/01/21 10:17:39;;;;;;;3.70;2.63;;;;;;;;;;4833497;29;20069;-86
2021/01/21 10:20:10;;;;;;;6.22;2.22;;;7.70;99.90;;;;;;4829262;29;20491;-86
2021/01/21 10:22:39;;;;;;;8.82;2.58;;;;;;;;;;4843915;29;20049;-86
2021/01/21 10:25:10;;;;;;;11.93;2.08;;;;;;;;;;4849854;29;20066;-86
2021/01/21 10:27:41;;;;;;;2.88;1.77;;;;;;;;;;4838009;29;20057;-86
2021/01/21 10:30:11;;;;;;;8.55;4.15;;;;;;;;;;4834746;29;20053;-86
2021/01/21 10:32:43;;;;;;;5.43;1.73;;;;;;;;;;4830390;29;20057;-86
2021/01/21 10:35:14;;;;;;;5.20;1.95;;;;;;;;;;4835874;24;20054;-85
2021/01/21 10:37:43;;;;;;;6.32;2.67;;;;;;;;;;4834114;29;20130;-84
2021/01/21 10:40:20;;;;;;;6.40;2.70;;;;;;;;;;4837857;29;20057;-86
2021/01/21 10:43:01;;;;;;;13.45;2.78;;;;;;;;;;4844581;29;20054;-88
2021/01/21 10:45:35;;;;;;;6.80;1.85;;;;;;;;;;4821442;29;20058;-87
2021/01/21 10:48:26;;;;;;;5.22;1.80;;;;;;;;;;4842487;29;20058;-86
2021/01/21 10:51:05;;;;;;;1.80;1.50;;;;;;;;;;4832310;24;20065;-84
2021/01/21 10:53:38;;;;;;;3.33;1.60;;;;;;;;;;4818318;29;20061;-87
2021/01/21 10:56:06;;;;;;;5.57;1.52;;;;;;;;;;4826802;29;20418;-86
2021/01/21 10:58:40;;;;;;;6.13;2.13;;;;;;;;;;4812427;29;20053;-86
2021/01/21 11:01:28;;;;;;;5.60;1.90;;;;;;;;;;4828264;29;20063;-86
2021/01/21 11:04:07;;;;;;;7.93;1.55;;;;;;;;;;4821228;29;20047;-86
2021/01/21 11:06:56;;;;;;;3.92;1.73;;;;;;;;;;4783177;29;20046;-87
2021/01/21 11:09:37;;;;;;;5.75;2.25;;;;;;;;;;4816617;29;20073;-85
2021/01/21 11:12:16;;;;;;;7.80;2.30;;;;;;;;;;4806965;29;20059;-85
2021/01/21 11:15:17;;;;;;;3.00;1.60;;;;;;;;;;4827249;29;20058;-86
2021/01/21 11:21:34;;;;;;;6.72;1.67;;;8.60;99.90;;;;;;4884266;29;20045;-87
2021/01/21 11:24:12;;;;;;;8.60;3.88;;;;;;;;;;4883333;24;20064;-87
2021/01/21 11:26:45;;;;;;;10.60;2.33;;;;;;;;;;4857795;29;20045;-86
2021/01/21 11:29:24;;;;;;;8.95;1.83;;;;;;;;;;4852608;29;20050;-87
2021/01/21 11:31:55;;;;;;;7.40;5.30;;;;;;;;;;4866628;29;20069;-86
2021/01/21 11:34:42;;;;;;;2.70;2.15;;;;;;;;;;4837965;29;20034;-87
2021/01/21 11:37:12;;;;;;;7.03;2.55;;;;;;;;;;4809391;29;20434;-86
2021/01/21 11:39:45;;;;;;;9.70;1.80;;;;;;;;;;4844675;29;20062;-85
2021/01/21 11:42:13;;;;;;;13.48;3.17;;;;;;;;;;4820901;29;20058;-86
2021/01/21 11:44:41;;;;;;;19.98;2.42;;;;;;;;;;4807720;29;20054;-86
2021/01/21 11:47:18;;;;;;;6.15;1.42;;;;;;;;;;4813709;29;20046;-87
2021/01/21 11:49:57;;;;;;;11.07;2.55;;;;;;;;;;4836414;29;20045;-83
2021/01/21 11:52:30;;;;;;;14.32;3.50;;;;;;;;;;4840073;29;20054;-86
2021/01/21 11:55:11;;;;;;;4.22;2.17;;;8.80;99.90;;;;;;4838040;29;20053;-86
2021/01/21 11:57:46;;;;;;;9.32;3.42;;;;;;;;;;4831370;29;20070;-86
2021/01/21 12:00:15;;;;;;;6.30;3.13;;;;;;;;;;4854154;29;20057;-88
2021/01/21 12:02:49;;;;;;;7.55;2.50;;;;;;;;;;4857091;29;20042;-86
2021/01/21 12:05:39;;;;;;;7.80;2.83;;;;;;;;;;4842289;29;20049;-87
2021/01/21 12:08:11;;;;;;;10.15;2.22;;;;;;;;;;4844859;29;20057;-87
2021/01/21 12:10:54;;;;;;;6.10;2.97;;;;;;;;;;4844520;29;20104;-87
2021/01/21 12:13:27;;;;;;;6.53;1.75;;;;;;;;;;4828903;29;20074;-86
2021/01/21 12:15:59;;;;;;;9.10;2.28;;;;;;;;;;4830871;29;20406;-87
2021/01/21 12:18:31;;;;;;;7.20;2.08;;;;;;;;;;4831713;29;20061;-86
2021/01/21 12:21:00;;;;;;;19.42;3.05;;;;;;;;;;4851150;29;20054;-85
2021/01/21 12:23:37;;;;;;;7.72;3.97;;;;;;;;;;4868378;24;20054;-85
2021/01/21 12:26:09;;;;;;;8.45;2.22;;;;;;;;;;4818860;29;20081;-85
2021/01/21 12:28:38;;;;;;;8.57;2.17;;;;;;;;;;4833049;29;20061;-85
2021/01/21 12:31:08;;;;;;;4.78;2.08;;;9.70;99.90;;;;;;4802098;29;20066;-85
2021/01/21 12:33:47;;;;;;;3.60;1.70;;;;;;;;;;4819199;29;20066;-86
2021/01/21 12:36:25;;;;;;;6.50;2.50;;;;;;;;;;4814336;29;20073;-86
2021/01/21 12:39:09;;;;;;;7.82;2.50;;;;;;;;;;4818578;29;20051;-88
2021/01/21 12:41:39;;;;;;;13.75;3.55;;;;;;;;;;4809672;29;20059;-86
2021/01/21 12:44:07;;;;;;;6.55;1.98;;;;;;;;;;4813927;29;20054;-86
2021/01/21 12:46:36;;;;;;;8.00;2.05;;;;;;;;;;4814404;29;20074;-85
2021/01/21 12:49:06;;;;;;;6.60;2.77;;;;;;;;;;4829304;29;20055;-83
2021/01/21 12:51:43;;;;;;;6.07;2.80;;;;;;;;;;4805604;29;20318;-84
2021/01/21 12:54:14;;;;;;;10.53;3.53;;;;;;;;;;4809228;29;20070;-83
2021/01/21 12:56:42;;;;;;;9.35;2.25;;;;;;;;;;4808858;29;20074;-86
2021/01/21 12:59:12;;;;;;;6.45;1.65;;;;;;;;;;4808097;29;20051;-83
2021/01/21 13:01:43;;;;;;;10.18;3.00;;;;;;;;;;4817697;29;20063;-82
2021/01/21 13:04:15;;;;;;;5.35;2.45;;;;;;;;;;4812758;29;20057;-85
2021/01/21 13:06:46;;;;;;;;;;;9.90;99.90;;;;;;4818709;29;20058;-85
2021/01/21 13:09:15;;;;;;;3.97;1.67;;;;;;;;;;4816298;29;19949;-82
2021/01/21 13:11:44;;;;;;;6.95;1.88;;;;;;;;;;4819433;29;20071;-83
2021/01/21 13:14:13;;;;;;;11.90;2.60;;;;;;;;;;4815603;29;20058;-82
2021/01/21 13:16:46;;;;;;;9.98;2.10;;;9.40;99.90;;;;;;4817134;29;20057;-83
2021/01/21 13:19:15;;;;;;;3.95;2.45;;;;;;;;;;4817266;29;20060;-84
2021/01/21 13:21:45;;;;;;;10.15;1.77;;;;;;;;;;4784148;29;20425;-83
2021/01/21 13:24:14;;;;;;;13.63;2.97;;;;;;;;;;4806668;29;20062;-83
2021/01/21 13:26:43;;;;;;;9.52;1.67;;;;;;;;;;4836829;29;20055;-85
2021/01/21 13:29:12;;;;;;;20.00;3.60;;;;;;;;;;4831072;29;20066;-83
2021/01/21 13:31:42;;;;;;;7.40;2.08;;;;;;;;;;4818933;29;20059;-81
2021/01/21 13:34:15;;;;;;;18.30;5.72;;;9.30;99.90;;;;;;4829817;29;20057;-84
2021/01/21 13:36:43;;;;;;;7.80;3.28;;;;;;;;;;4831667;29;20059;-83
2021/01/21 13:39:15;;;;;;;15.90;3.65;;;;;;;;;;4834436;29;20054;-84
2021/01/21 13:41:48;;;;;;;15.18;2.83;;;;;;;;;;4818400;29;20054;-83
2021/01/21 13:44:17;;;;;;;21.83;3.72;;;;;;;;;;4819189;29;20054;-83
2021/01/21 13:46:48;;;;;;;14.15;5.10;;;;;;;;;;4812665;29;20062;-84
2021/01/21 13:49:17;;;;;;;10.00;3.28;;;;;;;;;;4813879;29;20062;-84
2021/01/21 13:51:45;;;;;;;5.25;3.30;;;;;;;;;;4810845;29;20046;-82
2021/01/21 13:54:14;;;;;;;9.50;2.25;;;9.10;99.90;;;;;;4841686;29;20043;-84
2021/01/21 13:56:42;;;;;;;21.98;4.10;;;;;;;;;;4830604;29;20058;-84
2021/01/21 13:59:11;;;;;;;7.05;2.22;;;;;;;;;;4835691;29;20060;-85
2021/01/21 14:01:41;;;;;;;6.43;2.60;;;;;;;;;;4834011;29;20505;-83
2021/01/21 14:04:11;;;;;;;17.17;3.50;;;8.90;99.90;;;;;;4811409;29;20055;-83
2021/01/21 14:06:46;;;;;;;30.65;2.88;;;;;;;;;;4816934;29;20046;-83
2021/01/21 14:09:15;;;;;;;15.52;3.45;;;;;;;;;;4819524;29;20055;-83
2021/01/21 14:12:04;;;;;;;11.13;3.10;;;;;;;;;;4833100;29;20065;-84
2021/01/21 14:14:40;;;;;;;7.32;2.22;;;;;;;;;;4815646;29;20062;-84
2021/01/21 14:17:07;;;;;;;12.18;4.15;;;;;;;;;;4830669;29;20081;-83
2021/01/21 14:19:49;;;;;;;9.40;2.95;;;;;;;;;;4822331;29;20054;-83
2021/01/21 14:22:21;;;;;;;4.53;2.03;;;;;;;;;;4821227;29;20069;-84
2021/01/21 14:24:51;;;;;;;10.75;3.17;;;;;;;;;;4832420;29;20062;-83
2021/01/21 14:27:22;;;;;;;;;;;10.60;99.90;;;;;;4875959;24;20563;-82
2021/01/21 14:29:52;;;;;;;15.90;2.78;;;;;;;;;;4841882;29;19928;-82
2021/01/21 14:32:22;;;;;;;5.63;3.83;;;;;;;;;;4861221;29;20053;-83
2021/01/21 14:35:15;;;;;;;9.80;2.20;;;8.80;99.90;;;;;;4829391;29;20466;-84
2021/01/21 14:37:47;;;;;;;2.13;1.80;;;;;;;;;;4845622;29;20083;-83
2021/01/21 14:40:22;;;;;;;14.48;3.15;;;8.90;99.90;;;;;;4865262;29;20410;-83
2021/01/21 14:42:57;;;;;;;2.88;2.08;;;;;;;;;;4882395;24;20088;-84
2021/01/21 14:45:28;;;;;;;5.70;2.10;;;;;;;;;;4862988;29;20056;-83
2021/01/21 14:48:04;;;;;;;7.57;2.85;;;;;;;;;;4842968;29;20060;-83
2021/01/21 14:50:33;;;;;;;7.13;2.10;;;;;;;;;;4858363;29;20049;-84
2021/01/21 14:53:05;;;;;;;8.07;3.33;;;;;;;;;;4862246;29;20079;-83
2021/01/21 14:55:32;;;;;;;8.63;2.88;;;;;;;;;;4868243;29;20057;-83
2021/01/21 14:58:03;;;;;;;24.23;4.80;;;;;;;;;;4868153;29;20065;-83
2021/01/21 15:00:32;;;;;;;14.48;4.00;;;;;;;;;;4843020;24;20058;-85
2021/01/21 15:03:01;;;;;;;11.85;3.53;;;;;;;;;;4828829;29;20065;-84
2021/01/21 15:05:30;;;;;;;10.55;4.05;;;;;;;;;;4823433;29;20065;-83
2021/01/21 15:07:58;;;;;;;15.45;2.65;;;;;;;;;;4809316;29;20051;-84
2021/01/21 15:10:29;;;;;;;17.10;5.97;;;;;;;;;;4889669;24;20069;-83
2021/01/21 15:13:05;;;;;;;15.63;2.33;;;;;;;;;;4813829;29;20054;-83
2021/01/21 15:16:01;;;;;;;11.32;4.93;;;8.70;99.90;;;;;;4808689;29;20062;-84